Main page
METAR-TAF:

METAR-TAF

Airports :

Piedras Negras International Airport

Piedras Negras, Mexico

latitude: 28-42N, longitude: 100-31W, elevation: 820 ft

Current weather observation

The report was made 22 minutes ago, at 18:43 UTC
Wind 7 mph from the East/Southeast
Temperature 97°F
Humidity 42%
Pressure 29.94 in. Hg
Visibility: 10 miles
Few clouds at a height of 3000 ft

METAR: MMPG 141843Z 12006KT 10SM FEW030 36/21 A2994 RMK 8/500

Time: 14:05 (19:05 UTC)

Forecast

The report was made 1 hour and 50 minutes ago, at 17:15 UTC
Forecast valid from 14 at 18 UTC to 15 at 18 UTC
Wind 12 mph from the Southeast
Visibility: 6 miles
Scattered clouds at a height of 3000 ft
From 15 at 0300 UTC
Wind 6 mph from the Southeast
Visibility: 6 miles
Clear sky
haze
From 15 at 1800 UTC
Wind 12 mph from the Southeast
Visibility: 6 miles
Scattered clouds at a height of 3000 ft

TAF: MMPG 141715Z 1418/1518 13010KT P6SM SCT030 FM150300 13005KT 6SM HZ SKC FM151800 13010KT P6SM SCT030

Weather observations and forecasts of more than 4000 airports (METAR and TAF reports).

The available stations are represented by yellow and red dots on the map.

Hover mouse over dot to see the name of the station.

Then click to see weather observations and forecasts.

To change the map : click on the green buttons with a black cross to zoom in, on the green button with a dash to zoom out, or on the green arrows for adjacent maps.


METAR-TAF: